createdAt,value
2017-07-27T00:01:17.673Z,0
2017-07-27T00:02:17.875Z,0
2017-07-27T00:03:17.516Z,0
2017-07-27T00:04:17.750Z,0
2017-07-27T00:05:17.693Z,0
2017-07-27T00:06:17.628Z,0
2017-07-27T00:07:17.568Z,0
2017-07-27T00:08:17.511Z,0
2017-07-27T00:09:17.439Z,0
2017-07-27T00:10:17.374Z,0
2017-07-27T00:11:17.016Z,0
2017-07-27T00:12:17.253Z,0
2017-07-27T00:13:16.889Z,0
2017-07-27T00:14:16.830Z,0
2017-07-27T00:15:16.461Z,0
2017-07-27T00:16:16.710Z,0
2017-07-27T00:17:16.641Z,0
2017-07-27T00:18:15.973Z,0
2017-07-27T00:19:16.822Z,0
2017-07-27T00:20:16.456Z,0
2017-07-27T00:21:16.704Z,0
2017-07-27T00:22:16.635Z,0
2017-07-27T00:23:16.270Z,0
2017-07-27T00:24:16.207Z,0
2017-07-27T00:25:16.145Z,0
2017-07-27T00:26:16.383Z,0
2017-07-27T00:27:16.318Z,0
2017-07-27T00:28:15.956Z,0
2017-07-27T00:29:15.894Z,0
2017-07-27T00:30:16.140Z,0
2017-07-27T00:31:16.079Z,0
2017-07-27T00:32:15.719Z,0
2017-07-27T00:33:15.951Z,0
2017-07-27T00:34:15.883Z,0
2017-07-27T00:35:15.842Z,0
2017-07-27T00:36:15.770Z,0
2017-07-27T00:37:15.397Z,0
2017-07-27T00:38:15.640Z,0
2017-07-27T00:39:15.580Z,0
2017-07-27T00:40:15.524Z,0
2017-07-27T00:41:15.146Z,0
2017-07-27T00:42:15.086Z,0
2017-07-27T00:43:15.328Z,0
2017-07-27T00:44:15.269Z,0
2017-07-27T00:45:15.205Z,0
2017-07-27T00:46:14.846Z,0
2017-07-27T00:47:15.081Z,0
2017-07-27T00:48:15.029Z,0
2017-07-27T00:49:14.960Z,0
2017-07-27T00:50:14.903Z,0
2017-07-27T00:51:14.833Z,0
2017-07-27T00:52:14.464Z,0
2017-07-27T00:53:14.708Z,0
2017-07-27T00:54:14.663Z,0
2017-07-27T00:55:14.589Z,0
2017-07-27T00:56:14.531Z,0
2017-07-27T00:57:14.463Z,0
2017-07-27T00:58:14.097Z,0
2017-07-27T00:59:14.342Z,0
2017-07-27T01:00:13.970Z,0
2017-07-27T01:01:14.237Z,0
2017-07-27T01:02:14.152Z,0
2017-07-27T01:03:13.783Z,0
2017-07-27T01:04:14.029Z,0
2017-07-27T01:05:13.960Z,0
2017-07-27T01:06:13.898Z,0
2017-07-27T01:07:13.537Z,0
2017-07-27T01:08:13.777Z,0
2017-07-27T01:09:13.717Z,0
2017-07-27T01:10:13.656Z,0
2017-07-27T01:11:13.596Z,0
2017-07-27T01:12:13.529Z,0
2017-07-27T01:13:13.168Z,0
2017-07-27T01:14:12.796Z,0
2017-07-27T01:15:13.341Z,0
2017-07-27T01:16:13.280Z,0
2017-07-27T01:17:13.220Z,0
2017-07-27T01:18:13.159Z,0
2017-07-27T01:19:12.797Z,0
2017-07-27T01:20:12.728Z,0
2017-07-27T01:21:12.365Z,0
2017-07-27T01:22:12.604Z,0
2017-07-27T01:23:12.547Z,0
2017-07-27T01:24:12.781Z,0
2017-07-27T01:25:12.720Z,0
2017-07-27T01:26:12.665Z,0
2017-07-27T01:27:12.597Z,0
2017-07-27T01:28:12.537Z,0
2017-07-27T01:29:12.170Z,0
2017-07-27T01:30:12.107Z,0
2017-07-27T01:31:12.355Z,0
2017-07-27T01:32:11.982Z,0
2017-07-27T01:33:11.930Z,0
2017-07-27T01:34:12.164Z,0
2017-07-27T01:35:12.097Z,0
2017-07-27T01:36:11.736Z,0
2017-07-27T01:37:11.975Z,0
2017-07-27T01:38:11.923Z,0
2017-07-27T01:39:11.547Z,0
2017-07-27T01:40:11.483Z,0
2017-07-27T01:41:11.736Z,0
2017-07-27T01:42:11.668Z,0
2017-07-27T01:43:11.610Z,0
2017-07-27T01:44:11.538Z,0
2017-07-27T01:45:11.483Z,0
2017-07-27T01:46:11.113Z,0
2017-07-27T01:47:11.354Z,0
2017-07-27T01:48:11.294Z,0
2017-07-27T01:49:11.234Z,0
2017-07-27T01:50:11.174Z,0
2017-07-27T01:51:11.115Z,0
2017-07-27T01:52:11.062Z,0
2017-07-27T01:53:10.982Z,0
2017-07-27T01:54:10.944Z,0
2017-07-27T01:55:10.859Z,0
2017-07-27T01:56:10.809Z,0
2017-07-27T01:57:10.733Z,0
2017-07-27T01:58:10.671Z,0
2017-07-27T01:59:10.639Z,0
2017-07-27T02:00:09.943Z,0
2017-07-27T02:01:10.485Z,0
2017-07-27T02:02:10.424Z,0
2017-07-27T02:03:10.359Z,0
2017-07-27T02:04:10.304Z,0
2017-07-27T02:05:10.241Z,0
2017-07-27T02:06:09.874Z,0
2017-07-27T02:07:10.115Z,0
2017-07-27T02:08:09.745Z,0
2017-07-27T02:09:09.987Z,0
2017-07-27T02:10:09.634Z,0
2017-07-27T02:11:09.867Z,0
2017-07-27T02:12:09.802Z,0
2017-07-27T02:13:09.742Z,0
2017-07-27T02:14:09.680Z,0
2017-07-27T02:15:09.625Z,0
2017-07-27T02:16:09.558Z,0
2017-07-27T02:17:09.188Z,0
2017-07-27T02:18:09.127Z,0
2017-07-27T02:19:09.370Z,0
2017-07-27T02:20:09.413Z,0
2017-07-27T02:21:09.247Z,0
2017-07-27T02:22:09.182Z,0
2017-07-27T02:23:08.517Z,0
2017-07-27T02:24:09.073Z,0
2017-07-27T02:25:09.009Z,0
2017-07-27T02:26:08.938Z,0
2017-07-27T02:27:08.872Z,0
2017-07-27T02:28:08.811Z,0
2017-07-27T02:29:08.745Z,0
2017-07-27T02:30:08.689Z,0
2017-07-27T02:31:08.627Z,0
2017-07-27T02:32:08.566Z,0
2017-07-27T02:33:08.511Z,0
2017-07-27T02:34:08.140Z,0
2017-07-27T02:35:08.379Z,0
2017-07-27T02:36:08.310Z,0
2017-07-27T02:37:08.256Z,0
2017-07-27T02:38:08.192Z,0
2017-07-27T02:39:08.140Z,0
2017-07-27T02:40:08.073Z,0
2017-07-27T02:41:08.007Z,0
2017-07-27T02:42:07.640Z,0
2017-07-27T02:43:07.880Z,0
2017-07-27T02:44:07.520Z,0
2017-07-27T02:45:07.759Z,0
2017-07-27T02:46:07.693Z,0
2017-07-27T02:47:07.026Z,0
2017-07-27T02:48:07.270Z,0
2017-07-27T02:49:07.217Z,0
2017-07-27T02:50:07.156Z,0
2017-07-27T02:51:07.390Z,0
2017-07-27T02:52:07.020Z,0
2017-07-27T02:53:07.263Z,0
2017-07-27T02:54:07.196Z,0
2017-07-27T02:55:07.144Z,0
2017-07-27T02:56:07.075Z,0
2017-07-27T02:57:07.011Z,0
2017-07-27T02:58:06.948Z,0
2017-07-27T02:59:06.891Z,0
2017-07-27T03:00:06.822Z,0
2017-07-27T03:01:06.760Z,0
2017-07-27T03:02:06.695Z,0
2017-07-27T03:03:06.636Z,0
2017-07-27T03:04:06.575Z,0
2017-07-27T03:05:06.521Z,0
2017-07-27T03:06:06.151Z,0
2017-07-27T03:07:06.088Z,0
2017-07-27T03:08:06.331Z,0
2017-07-27T03:09:06.266Z,0
2017-07-27T03:10:05.921Z,0
2017-07-27T03:11:06.141Z,0
2017-07-27T03:12:06.077Z,0
2017-07-27T03:13:06.017Z,0
2017-07-27T03:14:05.950Z,0
2017-07-27T03:15:05.302Z,0
2017-07-27T03:16:05.829Z,0
2017-07-27T03:17:05.465Z,0
2017-07-27T03:18:05.706Z,0
2017-07-27T03:19:05.650Z,0
2017-07-27T03:20:05.279Z,0
2017-07-27T03:21:05.516Z,0
2017-07-27T03:22:04.851Z,0
2017-07-27T03:23:05.394Z,0
2017-07-27T03:24:05.337Z,0
2017-07-27T03:25:04.663Z,0
2017-07-27T03:26:04.906Z,0
2017-07-27T03:27:04.842Z,0
2017-07-27T03:28:05.084Z,0
2017-07-27T03:29:05.026Z,0
2017-07-27T03:30:04.962Z,0
2017-07-27T03:31:04.906Z,0
2017-07-27T03:32:04.838Z,0
2017-07-27T03:33:04.779Z,0
2017-07-27T03:34:04.710Z,0
2017-07-27T03:35:04.646Z,4
2017-07-27T03:36:04.610Z,4
2017-07-27T03:37:04.522Z,4
2017-07-27T03:38:04.162Z,4
2017-07-27T03:39:04.403Z,4
2017-07-27T03:40:04.344Z,4
2017-07-27T03:41:04.270Z,4
2017-07-27T03:42:04.215Z,4
2017-07-27T03:43:04.148Z,4
2017-07-27T03:44:04.092Z,4
2017-07-27T03:45:04.038Z,4
2017-07-27T03:46:03.964Z,4
2017-07-27T03:47:03.294Z,4
2017-07-27T03:48:03.840Z,4
2017-07-27T03:49:03.779Z,4
2017-07-27T03:50:03.715Z,4
2017-07-27T03:51:03.349Z,4
2017-07-27T03:52:03.590Z,4
2017-07-27T03:53:03.526Z,4
2017-07-27T03:54:03.467Z,4
2017-07-27T03:55:03.107Z,4
2017-07-27T03:56:03.346Z,4
2017-07-27T03:57:03.281Z,4
2017-07-27T03:58:03.218Z,4
2017-07-27T03:59:03.158Z,4
2017-07-27T04:00:02.487Z,4
2017-07-27T04:01:02.735Z,4
2017-07-27T04:02:02.674Z,4
2017-07-27T04:03:02.942Z,4
2017-07-27T04:04:02.543Z,4
2017-07-27T04:05:02.783Z,4
2017-07-27T04:06:02.423Z,4
2017-07-27T04:07:02.354Z,8
2017-07-27T04:08:02.295Z,8
2017-07-27T04:09:02.543Z,8
2017-07-27T04:10:02.172Z,8
2017-07-27T04:11:02.409Z,8
2017-07-27T04:12:02.350Z,4
2017-07-27T04:13:02.290Z,4
2017-07-27T04:14:02.230Z,4
2017-07-27T04:15:01.857Z,4
2017-07-27T04:16:01.796Z,4
2017-07-27T04:17:01.734Z,4
2017-07-27T04:18:01.986Z,4
2017-07-27T04:19:01.914Z,4
2017-07-27T04:20:01.551Z,8
2017-07-27T04:21:01.787Z,8
2017-07-27T04:22:01.727Z,8
2017-07-27T04:23:01.670Z,8
2017-07-27T04:24:01.828Z,8
2017-07-27T04:25:01.235Z,8
2017-07-27T04:26:01.496Z,8
2017-07-27T04:27:01.112Z,4
2017-07-27T04:28:01.350Z,8
2017-07-27T04:29:00.683Z,8
2017-07-27T04:30:01.227Z,8
2017-07-27T04:31:00.861Z,8
2017-07-27T04:32:01.112Z,8
2017-07-27T04:33:00.750Z,8
2017-07-27T04:34:00.979Z,12
2017-07-27T04:35:00.615Z,12
2017-07-27T04:36:00.856Z,12
2017-07-27T04:37:00.792Z,12
2017-07-27T04:38:00.429Z,12
2017-07-27T04:39:00.367Z,12
2017-07-27T04:40:00.614Z,8
2017-07-27T04:41:00.545Z,12
2017-07-27T04:42:00.485Z,12
2017-07-27T04:43:00.117Z,16
2017-07-27T04:44:00.364Z,12
2017-07-27T04:45:00.293Z,8
2017-07-27T04:46:00.439Z,8
2017-07-27T04:46:59.870Z,8
2017-07-27T04:48:00.109Z,8
2017-07-27T04:48:59.769Z,8
2017-07-27T04:49:59.984Z,8
2017-07-27T04:50:59.949Z,8
2017-07-27T04:51:59.884Z,8
2017-07-27T04:52:59.794Z,8
2017-07-27T04:53:59.742Z,12
2017-07-27T04:54:59.368Z,32
2017-07-27T04:55:59.609Z,36
2017-07-27T04:56:59.550Z,36
2017-07-27T04:57:59.490Z,36
2017-07-27T04:58:59.429Z,36
2017-07-27T04:59:59.059Z,36
2017-07-27T05:00:59.300Z,36
2017-07-27T05:01:59.248Z,40
2017-07-27T05:02:59.179Z,40
2017-07-27T05:03:58.835Z,40
2017-07-27T05:04:58.747Z,40
2017-07-27T05:05:58.685Z,40
2017-07-27T05:06:58.933Z,44
2017-07-27T05:07:58.866Z,40
2017-07-27T05:08:58.804Z,44
2017-07-27T05:09:58.437Z,40
2017-07-27T05:10:58.371Z,44
2017-07-27T05:11:58.617Z,44
2017-07-27T05:12:58.258Z,48
2017-07-27T05:13:58.188Z,44
2017-07-27T05:14:58.439Z,44
2017-07-27T05:15:58.367Z,48
2017-07-27T05:16:58.307Z,52
2017-07-27T05:17:58.248Z,52
2017-07-27T05:18:58.180Z,52
2017-07-27T05:19:58.120Z,56
2017-07-27T05:20:57.756Z,56
2017-07-27T05:21:57.713Z,52
2017-07-27T05:22:57.932Z,60
2017-07-27T05:23:57.565Z,60
2017-07-27T05:24:57.805Z,60
2017-07-27T05:25:57.748Z,56
2017-07-27T05:26:57.682Z,56
2017-07-27T05:27:57.626Z,48
2017-07-27T05:28:57.557Z,44
2017-07-27T05:29:57.495Z,28
2017-07-27T05:30:57.152Z,16
2017-07-27T05:31:57.070Z,16
2017-07-27T05:32:56.711Z,16
2017-07-27T05:33:57.245Z,16
2017-07-27T05:34:57.191Z,16
2017-07-27T05:35:57.131Z,12
2017-07-27T05:36:56.462Z,16
2017-07-27T05:37:56.697Z,20
2017-07-27T05:38:56.638Z,20
2017-07-27T05:39:56.577Z,20
2017-07-27T05:40:56.513Z,24
2017-07-27T05:41:56.448Z,28
2017-07-27T05:42:56.387Z,52
2017-07-27T05:43:56.627Z,44
2017-07-27T05:44:55.958Z,36
2017-07-27T05:45:56.505Z,32
2017-07-27T05:46:56.439Z,32
2017-07-27T05:47:56.377Z,28
2017-07-27T05:48:56.016Z,32
2017-07-27T05:49:55.953Z,28
2017-07-27T05:50:56.295Z,20
2017-07-27T05:51:56.124Z,20
2017-07-27T05:52:56.076Z,24
2017-07-27T05:53:56.003Z,24
2017-07-27T05:54:55.952Z,24
2017-07-27T05:55:55.727Z,24
2017-07-27T05:56:55.821Z,48
2017-07-27T05:57:55.757Z,32
2017-07-27T05:58:55.704Z,36
2017-07-27T05:59:55.639Z,28
2017-07-27T06:00:55.364Z,28
2017-07-27T06:01:55.514Z,44
2017-07-27T06:02:55.149Z,36
2017-07-27T06:03:55.391Z,48
2017-07-27T06:04:55.320Z,28
2017-07-27T06:05:55.354Z,28
2017-07-27T06:06:54.893Z,28
2017-07-27T06:07:54.831Z,24
2017-07-27T06:08:54.767Z,24
2017-07-27T06:09:54.707Z,24
2017-07-27T06:10:54.958Z,28
2017-07-27T06:11:54.892Z,24
2017-07-27T06:12:54.819Z,28
2017-07-27T06:13:54.455Z,32
2017-07-27T06:14:54.698Z,36
2017-07-27T06:15:54.635Z,44
2017-07-27T06:16:54.572Z,40
2017-07-27T06:17:54.517Z,44
2017-07-27T06:18:54.452Z,28
2017-07-27T06:19:54.387Z,28
2017-07-27T06:20:54.325Z,24
2017-07-27T06:21:53.959Z,16
2017-07-27T06:22:54.202Z,20
2017-07-27T06:23:54.145Z,24
2017-07-27T06:24:53.776Z,20
2017-07-27T06:25:54.019Z,16
2017-07-27T06:26:53.953Z,20
2017-07-27T06:27:53.893Z,32
2017-07-27T06:28:53.831Z,52
2017-07-27T06:29:53.767Z,52
2017-07-27T06:30:53.707Z,48
2017-07-27T06:31:53.338Z,60
2017-07-27T06:32:53.586Z,48
2017-07-27T06:33:53.517Z,56
2017-07-27T06:34:53.167Z,60
2017-07-27T06:35:53.405Z,56
2017-07-27T06:36:53.030Z,60
2017-07-27T06:37:53.280Z,64
2017-07-27T06:38:53.212Z,48
2017-07-27T06:39:52.850Z,56
2017-07-27T06:40:53.086Z,60
2017-07-27T06:41:53.022Z,68
2017-07-27T06:42:52.957Z,48
2017-07-27T06:43:52.899Z,48
2017-07-27T06:44:52.837Z,48
2017-07-27T06:45:52.769Z,56
2017-07-27T06:46:52.409Z,56
2017-07-27T06:47:52.655Z,36
2017-07-27T06:48:52.592Z,36
2017-07-27T06:49:52.525Z,72
2017-07-27T06:50:52.160Z,76
2017-07-27T06:51:52.403Z,68
2017-07-27T06:52:52.338Z,72
2017-07-27T06:53:51.970Z,76
2017-07-27T06:54:52.237Z,64
2017-07-27T06:55:51.847Z,40
2017-07-27T06:56:52.089Z,36
2017-07-27T06:57:52.025Z,32
2017-07-27T06:58:51.686Z,36
2017-07-27T06:59:51.599Z,40
2017-07-27T07:00:51.539Z,48
2017-07-27T07:01:51.776Z,44
2017-07-27T07:02:51.923Z,52
2017-07-27T07:03:51.352Z,56
2017-07-27T07:04:51.287Z,60
2017-07-27T07:05:51.541Z,64
2017-07-27T07:06:51.474Z,64
2017-07-27T07:07:51.416Z,68
2017-07-27T07:08:51.346Z,72
2017-07-27T07:09:50.375Z,68
2017-07-27T07:10:50.918Z,68
2017-07-27T07:11:51.159Z,72
2017-07-27T07:12:50.795Z,72
2017-07-27T07:13:51.039Z,72
2017-07-27T07:14:50.671Z,72
2017-07-27T07:15:50.610Z,68
2017-07-27T07:16:50.845Z,72
2017-07-27T07:17:50.785Z,72
2017-07-27T07:18:50.722Z,76
2017-07-27T07:19:50.671Z,80
2017-07-27T07:20:50.603Z,76
2017-07-27T07:21:50.546Z,76
2017-07-27T07:22:50.475Z,80
2017-07-27T07:23:50.418Z,80
2017-07-27T07:24:50.353Z,88
2017-07-27T07:25:50.447Z,88
2017-07-27T07:26:50.236Z,84
2017-07-27T07:27:50.172Z,84
2017-07-27T07:28:50.114Z,84
2017-07-27T07:29:50.049Z,84
2017-07-27T07:30:49.987Z,80
2017-07-27T07:31:49.938Z,80
2017-07-27T07:32:49.558Z,76
2017-07-27T07:33:49.805Z,76
2017-07-27T07:34:49.436Z,80
2017-07-27T07:35:49.376Z,76
2017-07-27T07:36:49.615Z,76
2017-07-27T07:37:49.554Z,76
2017-07-27T07:38:49.491Z,72
2017-07-27T07:39:49.126Z,68
2017-07-27T07:40:49.361Z,68
2017-07-27T07:41:49.002Z,68
2017-07-27T07:42:48.938Z,68
2017-07-27T07:43:48.585Z,68
2017-07-27T07:44:48.819Z,68
2017-07-27T07:45:49.065Z,68
2017-07-27T07:46:48.693Z,68
2017-07-27T07:47:48.932Z,60
2017-07-27T07:48:48.888Z,64
2017-07-27T07:49:48.811Z,60
2017-07-27T07:50:48.748Z,72
2017-07-27T07:51:48.689Z,68
2017-07-27T07:52:48.643Z,72
2017-07-27T07:53:48.570Z,68
2017-07-27T07:54:48.500Z,68
2017-07-27T07:55:48.452Z,64
